createdAt,value
2018-09-05T00:00:39.524Z,9.50
2018-09-05T00:01:39.585Z,8.70
2018-09-05T00:02:39.647Z,8.60
2018-09-05T00:03:39.711Z,8.40
2018-09-05T00:04:39.774Z,9.00
2018-09-05T00:05:39.835Z,8.60
2018-09-05T00:06:39.898Z,9.40
2018-09-05T00:07:39.960Z,9.20
2018-09-05T00:08:40.022Z,8.50
2018-09-05T00:09:40.086Z,9.00
2018-09-05T00:10:40.147Z,8.80
2018-09-05T00:11:40.210Z,8.90
2018-09-05T00:12:40.272Z,9.20
2018-09-05T00:13:40.333Z,9.10
2018-09-05T00:14:40.397Z,8.90
2018-09-05T00:15:40.461Z,8.60
2018-09-05T00:16:40.522Z,8.90
2018-09-05T00:17:40.586Z,8.90
2018-09-05T00:18:40.647Z,9.10
2018-09-05T00:19:40.747Z,8.60
2018-09-05T00:20:40.771Z,8.70
2018-09-05T00:21:40.833Z,8.70
2018-09-05T00:22:40.897Z,8.70
2018-09-05T00:23:40.967Z,8.80
2018-09-05T00:24:41.020Z,9.20
2018-09-05T00:25:41.083Z,9.00
2018-09-05T00:26:41.145Z,8.80
2018-09-05T00:27:41.208Z,9.70
2018-09-05T00:28:41.269Z,9.10
2018-09-05T00:29:41.332Z,8.60
2018-09-05T00:30:41.398Z,8.60
2018-09-05T00:31:41.457Z,8.90
2018-09-05T00:32:41.519Z,8.50
2018-09-05T00:33:41.581Z,8.70
2018-09-05T00:34:41.643Z,9.00
2018-09-05T00:35:41.706Z,8.90
2018-09-05T00:36:41.767Z,8.70
2018-09-05T00:37:41.830Z,8.80
2018-09-05T00:38:41.893Z,9.30
2018-09-05T00:39:41.955Z,8.50
2018-09-05T00:40:42.017Z,9.10
2018-09-05T00:41:42.079Z,9.70
2018-09-05T00:42:42.141Z,8.60
2018-09-05T00:43:42.454Z,9.30
2018-09-05T00:44:42.266Z,9.20
2018-09-05T00:45:42.327Z,9.10
2018-09-05T00:46:42.390Z,9.20
2018-09-05T00:47:42.452Z,8.90
2018-09-05T00:48:42.515Z,9.70
2018-09-05T00:49:42.576Z,9.10
2018-09-05T00:50:42.638Z,9.70
2018-09-05T00:51:42.701Z,9.40
2018-09-05T00:52:42.762Z,9.20
2018-09-05T00:53:42.825Z,9.90
2018-09-05T00:54:42.887Z,9.00
2018-09-05T00:55:42.950Z,9.60
2018-09-05T00:56:43.011Z,9.00
2018-09-05T00:57:43.075Z,9.10
2018-09-05T00:58:43.136Z,9.20
2018-09-05T00:59:43.198Z,9.80
2018-09-05T01:00:43.261Z,9.30
2018-09-05T01:01:43.322Z,9.10
2018-09-05T01:02:43.389Z,9.00
2018-09-05T01:03:43.446Z,8.70
2018-09-05T01:04:43.508Z,9.30
2018-09-05T01:05:43.570Z,9.00
2018-09-05T01:06:43.632Z,9.20
2018-09-05T01:07:43.696Z,8.90
2018-09-05T01:08:43.756Z,9.60
2018-09-05T01:09:43.819Z,9.20
2018-09-05T01:10:43.884Z,9.00
2018-09-05T01:11:43.944Z,8.80
2018-09-05T01:12:44.004Z,9.00
2018-09-05T01:13:44.066Z,9.20
2018-09-05T01:14:44.129Z,9.00
2018-09-05T01:15:44.192Z,9.00
2018-09-05T01:16:44.252Z,9.00
2018-09-05T01:17:44.315Z,9.00
2018-09-05T01:18:44.377Z,8.80
2018-09-05T01:19:44.440Z,8.90
2018-09-05T01:20:44.501Z,8.60
2018-09-05T01:21:44.564Z,8.90
2018-09-05T01:22:44.627Z,9.00
2018-09-05T01:23:44.687Z,9.20
2018-09-05T01:24:44.750Z,9.80
2018-09-05T01:25:44.811Z,9.00
2018-09-05T01:26:44.874Z,9.50
2018-09-05T01:27:44.935Z,8.60
2018-09-05T01:28:44.998Z,9.10
2018-09-05T01:29:45.064Z,9.50
2018-09-05T01:30:45.121Z,8.90
2018-09-05T01:31:45.183Z,8.80
2018-09-05T01:32:45.244Z,9.50
2018-09-05T01:33:45.556Z,8.80
2018-09-05T01:34:45.368Z,9.20
2018-09-05T01:35:45.430Z,9.40
2018-09-05T01:36:45.491Z,9.10
2018-09-05T01:37:45.555Z,9.30
2018-09-05T01:38:45.616Z,8.80
2018-09-05T01:39:45.679Z,9.10
2018-09-05T01:40:45.742Z,9.20
2018-09-05T01:41:45.803Z,9.20
2018-09-05T01:42:45.895Z,9.50
2018-09-05T01:43:45.927Z,9.30
2018-09-05T01:44:45.987Z,9.30
2018-09-05T01:45:46.049Z,9.50
2018-09-05T01:46:46.112Z,9.60
2018-09-05T01:47:46.174Z,9.40
2018-09-05T01:48:46.236Z,9.80
2018-09-05T01:49:46.297Z,9.40
2018-09-05T01:50:46.359Z,9.20
2018-09-05T01:51:46.426Z,9.50
2018-09-05T01:52:46.482Z,9.50
2018-09-05T01:53:46.545Z,9.50
2018-09-05T01:54:46.607Z,8.60
2018-09-05T01:55:46.668Z,9.20
2018-09-05T01:56:46.728Z,9.50
2018-09-05T01:57:46.792Z,8.70
2018-09-05T01:58:46.904Z,10.20
2018-09-05T01:59:46.949Z,8.90
2018-09-05T02:00:46.976Z,9.70
2018-09-05T02:01:47.038Z,9.70
2018-09-05T02:02:47.101Z,9.30
2018-09-05T02:03:47.162Z,9.50
2018-09-05T02:04:47.223Z,8.90
2018-09-05T02:05:47.285Z,9.70
2018-09-05T02:06:47.347Z,9.20
2018-09-05T02:07:47.412Z,9.10
2018-09-05T02:08:47.470Z,8.90
2018-09-05T02:09:47.533Z,9.30
2018-09-05T02:10:47.595Z,9.20
2018-09-05T02:11:47.656Z,9.60
2018-09-05T02:12:47.717Z,9.80
2018-09-05T02:13:47.778Z,9.70
2018-09-05T02:14:47.841Z,10.10
2018-09-05T02:15:47.901Z,9.10
2018-09-05T02:16:47.963Z,9.00
2018-09-05T02:17:48.027Z,9.30
2018-09-05T02:18:48.088Z,9.60
2018-09-05T02:19:48.149Z,9.20
2018-09-05T02:20:48.210Z,9.00
2018-09-05T02:21:48.275Z,9.50
2018-09-05T02:22:48.334Z,9.40
2018-09-05T02:23:48.396Z,9.70
2018-09-05T02:24:48.457Z,9.70
2018-09-05T02:25:48.518Z,9.20
2018-09-05T02:26:48.580Z,9.70
2018-09-05T02:27:48.645Z,9.40
2018-09-05T02:28:48.704Z,9.10
2018-09-05T02:29:48.765Z,9.40
2018-09-05T02:30:48.827Z,8.70
2018-09-05T02:31:48.888Z,9.30
2018-09-05T02:32:48.953Z,9.80
2018-09-05T02:33:49.010Z,8.90
2018-09-05T02:34:49.326Z,9.30
2018-09-05T02:35:49.135Z,9.70
2018-09-05T02:36:49.196Z,9.50
2018-09-05T02:37:49.258Z,9.30
2018-09-05T02:38:49.321Z,9.50
2018-09-05T02:39:49.382Z,9.40
2018-09-05T02:40:49.556Z,9.30
2018-09-05T02:41:49.505Z,9.30
2018-09-05T02:42:49.566Z,9.50
2018-09-05T02:43:49.628Z,9.20
2018-09-05T02:44:49.689Z,9.40
2018-09-05T02:45:49.750Z,9.30
2018-09-05T02:46:49.812Z,9.50
2018-09-05T02:47:49.874Z,9.90
2018-09-05T02:48:49.934Z,9.60
2018-09-05T02:49:49.996Z,9.60
2018-09-05T02:50:50.058Z,9.20
2018-09-05T02:51:50.120Z,9.10
2018-09-05T02:52:50.191Z,9.60
2018-09-05T02:53:50.244Z,9.00
2018-09-05T02:54:50.307Z,9.50
2018-09-05T02:55:50.367Z,9.40
2018-09-05T02:56:50.427Z,9.50
2018-09-05T02:57:50.490Z,9.70
2018-09-05T02:58:50.550Z,9.50
2018-09-05T02:59:50.611Z,9.80
2018-09-05T03:00:50.672Z,9.70
2018-09-05T03:01:50.734Z,9.30
2018-09-05T03:02:50.796Z,10.00
2018-09-05T03:03:50.858Z,9.90
2018-09-05T03:04:50.919Z,9.80
2018-09-05T03:05:50.981Z,9.80
2018-09-05T03:06:51.048Z,9.60
2018-09-05T03:07:51.104Z,9.20
2018-09-05T03:08:51.165Z,9.40
2018-09-05T03:09:51.226Z,9.00
2018-09-05T03:10:51.287Z,9.30
2018-09-05T03:11:51.352Z,9.20
2018-09-05T03:12:51.411Z,9.60
2018-09-05T03:13:51.472Z,9.60
2018-09-05T03:14:51.535Z,9.30
2018-09-05T03:15:51.596Z,9.20
2018-09-05T03:16:51.659Z,9.20
2018-09-05T03:17:51.718Z,9.50
2018-09-05T03:18:51.780Z,9.30
2018-09-05T03:19:51.841Z,9.80
2018-09-05T03:20:51.905Z,9.80
2018-09-05T03:21:51.969Z,9.40
2018-09-05T03:22:52.026Z,10.20
2018-09-05T03:23:52.089Z,10.10
2018-09-05T03:24:52.149Z,9.80
2018-09-05T03:25:52.211Z,9.70
2018-09-05T03:26:52.276Z,9.30
2018-09-05T03:27:52.335Z,9.90
2018-09-05T03:28:52.393Z,10.20
2018-09-05T03:29:52.456Z,9.40
2018-09-05T03:30:52.525Z,10.50
2018-09-05T03:31:52.579Z,9.30
2018-09-05T03:32:52.736Z,9.70
2018-09-05T03:33:52.701Z,9.70
2018-09-05T03:34:52.764Z,9.30
2018-09-05T03:35:52.824Z,9.40
2018-09-05T03:36:52.884Z,9.00
2018-09-05T03:37:52.946Z,9.80
2018-09-05T03:38:53.008Z,9.40
2018-09-05T03:39:53.071Z,9.10
2018-09-05T03:40:53.131Z,9.70
2018-09-05T03:41:53.191Z,9.70
2018-09-05T03:42:53.254Z,9.30
2018-09-05T03:43:53.316Z,10.40
2018-09-05T03:44:53.379Z,9.70
2018-09-05T03:45:53.444Z,9.80
2018-09-05T03:46:53.502Z,9.30
2018-09-05T03:47:53.570Z,9.60
2018-09-05T03:48:53.620Z,9.80
2018-09-05T03:49:53.768Z,8.90
2018-09-05T03:50:53.744Z,10.10
2018-09-05T03:51:53.813Z,9.90
2018-09-05T03:52:53.867Z,9.60
2018-09-05T03:53:53.928Z,10.00
2018-09-05T03:54:53.989Z,10.00
2018-09-05T03:55:54.051Z,10.00
2018-09-05T03:56:54.112Z,9.70
2018-09-05T03:57:54.178Z,10.40
2018-09-05T03:58:54.235Z,9.90
2018-09-05T03:59:54.296Z,9.10
2018-09-05T04:00:54.508Z,9.60
2018-09-05T04:01:54.418Z,9.70
2018-09-05T04:02:54.479Z,9.60
2018-09-05T04:03:54.542Z,9.60
2018-09-05T04:04:54.606Z,9.60
2018-09-05T04:05:54.664Z,9.40
2018-09-05T04:06:54.724Z,10.10
2018-09-05T04:07:54.785Z,8.70
2018-09-05T04:08:54.847Z,9.40
2018-09-05T04:09:54.908Z,9.60
2018-09-05T04:10:54.969Z,10.20
2018-09-05T04:11:55.030Z,9.60
2018-09-05T04:12:55.091Z,9.80
2018-09-05T04:13:55.153Z,9.90
2018-09-05T04:14:55.214Z,9.80
2018-09-05T04:15:55.274Z,9.60
2018-09-05T04:16:55.336Z,9.60
2018-09-05T04:17:55.398Z,10.20
2018-09-05T04:18:55.459Z,9.70
2018-09-05T04:19:55.520Z,9.90
2018-09-05T04:20:55.581Z,9.70
2018-09-05T04:21:55.684Z,10.20
2018-09-05T04:22:55.703Z,9.80
2018-09-05T04:23:55.765Z,9.30
2018-09-05T04:24:55.828Z,9.70
2018-09-05T04:25:55.887Z,9.70
2018-09-05T04:26:55.949Z,9.10
2018-09-05T04:27:56.010Z,9.40
2018-09-05T04:28:56.072Z,10.30
2018-09-05T04:29:56.137Z,9.70
2018-09-05T04:30:56.194Z,9.10
2018-09-05T04:31:56.255Z,8.80
2018-09-05T04:32:56.315Z,9.40
2018-09-05T04:33:56.378Z,9.60
2018-09-05T04:34:56.438Z,9.50
2018-09-05T04:35:56.682Z,9.50
2018-09-05T04:36:56.560Z,10.10
2018-09-05T04:37:56.621Z,10.10
2018-09-05T04:38:56.683Z,10.30
2018-09-05T04:39:56.747Z,9.30
2018-09-05T04:40:56.805Z,9.60
2018-09-05T04:41:56.866Z,9.80
2018-09-05T04:42:56.928Z,10.00
2018-09-05T04:43:56.989Z,9.70
2018-09-05T04:44:57.050Z,9.70
2018-09-05T04:45:57.115Z,9.60
2018-09-05T04:46:57.178Z,9.10
2018-09-05T04:47:57.233Z,9.20
2018-09-05T04:48:57.294Z,9.00
2018-09-05T04:49:57.357Z,9.50
2018-09-05T04:50:57.416Z,9.40
2018-09-05T04:51:57.478Z,9.90
2018-09-05T04:52:57.538Z,8.90
2018-09-05T04:53:57.645Z,9.60
2018-09-05T04:54:58.553Z,9.70
2018-09-05T04:55:57.727Z,9.40
2018-09-05T04:56:57.787Z,9.50
2018-09-05T04:57:57.879Z,9.60
2018-09-05T04:58:57.906Z,10.20
2018-09-05T04:59:57.967Z,9.90
2018-09-05T05:00:58.278Z,9.60
2018-09-05T05:01:58.089Z,9.90
2018-09-05T05:02:58.150Z,9.80
2018-09-05T05:03:58.211Z,9.50
2018-09-05T05:04:58.606Z,10.00
2018-09-05T05:05:58.333Z,9.30
2018-09-05T05:06:58.398Z,9.50
2018-09-05T05:07:58.456Z,10.00
2018-09-05T05:08:58.540Z,9.40
2018-09-05T05:09:58.582Z,9.90
2018-09-05T05:10:58.638Z,9.60
2018-09-05T05:11:58.699Z,10.00
2018-09-05T05:12:58.760Z,9.20
2018-09-05T05:13:58.823Z,9.20
2018-09-05T05:14:58.883Z,9.00
2018-09-05T05:15:59.326Z,9.40
2018-09-05T05:16:59.007Z,9.30
2018-09-05T05:17:59.068Z,9.10
2018-09-05T05:18:59.128Z,9.30
2018-09-05T05:19:59.226Z,9.40
2018-09-05T05:20:59.249Z,9.20
2018-09-05T05:21:59.311Z,9.70
2018-09-05T05:22:59.374Z,9.90
2018-09-05T05:23:59.469Z,9.70
2018-09-05T05:24:59.494Z,9.40
2018-09-05T05:25:59.555Z,9.60
2018-09-05T05:26:59.618Z,9.30
2018-09-05T05:27:59.679Z,9.20
2018-09-05T05:29:00.195Z,8.90
2018-09-05T05:29:59.799Z,9.20
2018-09-05T05:30:59.863Z,9.40
2018-09-05T05:31:59.924Z,9.00
2018-09-05T05:33:00.012Z,9.30
2018-09-05T05:34:00.045Z,9.60
2018-09-05T05:35:00.110Z,9.60
2018-09-05T05:36:00.168Z,9.40
2018-09-05T05:37:00.228Z,9.50
2018-09-05T05:38:00.290Z,9.00
2018-09-05T05:39:00.354Z,9.90
2018-09-05T05:40:00.413Z,8.80
2018-09-05T05:41:00.475Z,9.60
2018-09-05T05:42:00.536Z,8.90
2018-09-05T05:43:00.596Z,8.80
2018-09-05T05:44:00.657Z,9.30
2018-09-05T05:45:00.719Z,9.50
2018-09-05T05:46:01.091Z,9.30
2018-09-05T05:47:00.841Z,9.60
2018-09-05T05:48:00.903Z,9.30
2018-09-05T05:49:00.964Z,9.00
2018-09-05T05:50:01.025Z,9.40
2018-09-05T05:51:01.086Z,9.80
2018-09-05T05:52:01.149Z,9.50
2018-09-05T05:53:01.213Z,9.20
2018-09-05T05:54:01.269Z,9.00
2018-09-05T05:55:01.370Z,9.20
2018-09-05T05:56:01.395Z,9.30
2018-09-05T05:57:01.453Z,9.60
2018-09-05T05:58:01.515Z,9.30
2018-09-05T05:59:01.576Z,9.50
2018-09-05T06:00:01.638Z,9.30
2018-09-05T06:01:01.730Z,9.50
2018-09-05T06:02:01.760Z,9.10
2018-09-05T06:03:01.821Z,9.60
2018-09-05T06:04:01.883Z,8.60
2018-09-05T06:05:01.944Z,9.00
2018-09-05T06:06:02.032Z,9.30
2018-09-05T06:07:02.068Z,9.50
2018-09-05T06:08:02.128Z,9.40
2018-09-05T06:09:02.189Z,9.30
2018-09-05T06:10:02.251Z,8.70
2018-09-05T06:11:02.312Z,8.70
2018-09-05T06:12:02.386Z,9.60
2018-09-05T06:13:02.434Z,9.50
2018-09-05T06:14:02.496Z,9.10
2018-09-05T06:15:02.558Z,9.30
2018-09-05T06:16:02.624Z,9.20
2018-09-05T06:17:02.931Z,9.60
2018-09-05T06:18:02.796Z,9.20
2018-09-05T06:19:03.485Z,9.10
2018-09-05T06:20:02.877Z,9.60
2018-09-05T06:21:02.962Z,8.70
2018-09-05T06:22:02.989Z,8.60
2018-09-05T06:23:03.050Z,9.40
2018-09-05T06:24:03.172Z,9.20
2018-09-05T06:25:03.269Z,9.70
2018-09-05T06:26:03.236Z,10.10
2018-09-05T06:27:03.296Z,10.40
2018-09-05T06:28:03.361Z,10.40
2018-09-05T06:29:03.420Z,9.60
2018-09-05T06:30:03.513Z,9.00
2018-09-05T06:31:03.728Z,9.30
2018-09-05T06:32:03.606Z,8.80
2018-09-05T06:33:03.704Z,8.90
2018-09-05T06:34:03.782Z,8.70
2018-09-05T06:35:03.792Z,9.00
2018-09-05T06:36:04.161Z,9.20
2018-09-05T06:37:03.913Z,9.20
2018-09-05T06:38:03.976Z,9.40
2018-09-05T06:39:04.073Z,9.10
2018-09-05T06:40:04.103Z,8.80
2018-09-05T06:41:04.162Z,9.20
2018-09-05T06:42:04.221Z,9.00
2018-09-05T06:43:04.323Z,9.00
2018-09-05T06:44:04.583Z,8.70
2018-09-05T06:45:04.500Z,8.90
2018-09-05T06:46:04.514Z,9.60
2018-09-05T06:47:04.569Z,9.50
2018-09-05T06:48:04.631Z,8.50
2018-09-05T06:49:04.690Z,8.80
2018-09-05T06:50:04.788Z,9.80
2018-09-05T06:51:05.823Z,9.40
2018-09-05T06:52:04.923Z,9.50
2018-09-05T06:53:04.950Z,9.80
2018-09-05T06:54:05.321Z,8.50
2018-09-05T06:55:05.030Z,8.70
2018-09-05T06:56:05.092Z,8.10
2018-09-05T06:57:05.153Z,8.90
2018-09-05T06:58:05.270Z,8.80
2018-09-05T06:59:05.279Z,9.20
2018-09-05T07:00:05.341Z,9.20
2018-09-05T07:01:05.402Z,9.50
2018-09-05T07:02:05.465Z,9.30
2018-09-05T07:03:05.528Z,9.30
2018-09-05T07:04:05.590Z,9.80
2018-09-05T07:05:06.113Z,9.40
2018-09-05T07:06:05.715Z,9.60
2018-09-05T07:07:05.844Z,9.60
2018-09-05T07:08:05.840Z,9.70
2018-09-05T07:09:05.902Z,8.80
2018-09-05T07:10:05.984Z,9.60
2018-09-05T07:11:06.029Z,9.30
2018-09-05T07:12:06.092Z,9.00
2018-09-05T07:13:06.155Z,9.20
2018-09-05T07:14:06.233Z,9.70
2018-09-05T07:15:06.283Z,9.60
2018-09-05T07:16:06.343Z,9.20
2018-09-05T07:17:06.406Z,9.50
2018-09-05T07:18:06.468Z,9.40
2018-09-05T07:19:06.533Z,9.50
2018-09-05T07:20:06.595Z,10.00
2018-09-05T07:21:06.663Z,9.60
2018-09-05T07:22:06.861Z,9.10
2018-09-05T07:23:06.784Z,9.30
2018-09-05T07:24:06.847Z,9.60
2018-09-05T07:25:06.969Z,9.20
2018-09-05T07:26:06.973Z,10.00
2018-09-05T07:27:07.036Z,9.20
2018-09-05T07:28:07.101Z,9.00
2018-09-05T07:29:07.161Z,8.90
2018-09-05T07:30:07.226Z,10.00
2018-09-05T07:31:07.289Z,10.10
2018-09-05T07:32:07.354Z,9.80
2018-09-05T07:33:07.416Z,9.30
2018-09-05T07:34:07.480Z,9.30
2018-09-05T07:35:07.542Z,9.60
2018-09-05T07:36:07.614Z,9.30
2018-09-05T07:37:07.673Z,9.60
2018-09-05T07:38:07.818Z,9.50
2018-09-05T07:39:07.797Z,9.20
2018-09-05T07:40:07.862Z,9.40
2018-09-05T07:41:07.924Z,9.20
2018-09-05T07:42:07.988Z,9.20
2018-09-05T07:43:08.052Z,9.00
2018-09-05T07:44:08.119Z,9.20
2018-09-05T07:45:08.180Z,8.60
2018-09-05T07:46:08.245Z,8.60
2018-09-05T07:47:08.308Z,9.50
2018-09-05T07:48:08.373Z,9.00
2018-09-05T07:49:08.436Z,9.00
2018-09-05T07:50:08.501Z,8.70
2018-09-05T07:51:08.642Z,9.00
2018-09-05T07:52:08.645Z,9.00
2018-09-05T07:53:08.694Z,9.40
2018-09-05T07:54:08.757Z,8.60
2018-09-05T07:55:08.822Z,8.60
2018-09-05T07:56:08.888Z,9.10
2018-09-05T07:57:08.955Z,8.70
2018-09-05T07:58:09.017Z,8.50
2018-09-05T07:59:09.082Z,8.80
2018-09-05T08:00:09.147Z,8.70
2018-09-05T08:01:09.212Z,9.00
2018-09-05T08:02:09.275Z,8.60
2018-09-05T08:03:09.341Z,8.80
2018-09-05T08:04:09.405Z,8.70
2018-09-05T08:05:09.471Z,8.70
2018-09-05T08:06:09.919Z,9.00
2018-09-05T08:07:09.603Z,9.30
2018-09-05T08:08:09.666Z,9.70
2018-09-05T08:09:09.730Z,8.80
2018-09-05T08:10:09.795Z,8.80
2018-09-05T08:11:09.860Z,8.30
2018-09-05T08:12:09.925Z,8.50
2018-09-05T08:13:09.990Z,8.60
2018-09-05T08:14:10.061Z,9.00
2018-09-05T08:15:10.120Z,8.80
2018-09-05T08:16:10.187Z,9.40
2018-09-05T08:17:10.251Z,9.60
2018-09-05T08:18:10.342Z,9.30
2018-09-05T08:19:10.382Z,9.60
2018-09-05T08:20:10.448Z,9.30
2018-09-05T08:21:10.513Z,9.40
2018-09-05T08:22:10.577Z,8.80
2018-09-05T08:23:10.643Z,9.50
2018-09-05T08:24:10.773Z,9.70
2018-09-05T08:25:10.779Z,9.50
2018-09-05T08:26:10.842Z,10.00
2018-09-05T08:27:10.908Z,9.60
2018-09-05T08:28:11.003Z,10.00
2018-09-05T08:29:11.052Z,10.80
2018-09-05T08:30:11.176Z,11.50
2018-09-05T08:31:11.173Z,11.00
2018-09-05T08:32:11.238Z,11.30
2018-09-05T08:33:11.304Z,11.50
2018-09-05T08:34:11.370Z,11.60
2018-09-05T08:35:11.623Z,12.10
2018-09-05T08:36:11.897Z,11.30
2018-09-05T08:37:11.839Z,10.70
2018-09-05T08:39:11.703Z,10.90
2018-09-05T08:40:11.770Z,11.10
2018-09-05T08:41:11.842Z,10.70
2018-09-05T08:42:11.908Z,11.90
2018-09-05T08:43:11.970Z,11.20
2018-09-05T08:44:12.329Z,13.30
2018-09-05T08:45:12.371Z,12.40
2018-09-05T08:46:12.399Z,12.50
2018-09-05T08:47:12.255Z,12.30
2018-09-05T08:48:12.391Z,13.10
2018-09-05T08:49:12.370Z,12.40
2018-09-05T08:50:12.439Z,12.10
2018-09-05T08:51:12.508Z,12.00
2018-09-05T08:52:12.574Z,12.40
2018-09-05T08:53:12.684Z,11.90
2018-09-05T08:54:12.708Z,10.60
2018-09-05T08:55:12.800Z,10.60
2018-09-05T08:56:12.937Z,11.10
2018-09-05T08:57:12.910Z,10.50
2018-09-05T08:58:12.993Z,11.10
2018-09-05T08:59:13.045Z,10.90
2018-09-05T09:00:13.116Z,9.80
2018-09-05T09:01:13.180Z,10.80
2018-09-05T09:02:13.247Z,10.70
2018-09-05T09:03:13.315Z,9.80
2018-09-05T09:04:13.386Z,10.20
2018-09-05T09:05:13.449Z,10.70
2018-09-05T09:06:13.518Z,10.40
2018-09-05T09:07:13.586Z,9.40
2018-09-05T09:08:13.654Z,10.30
2018-09-05T09:09:13.722Z,10.30
2018-09-05T09:10:13.789Z,9.40
2018-09-05T09:11:13.857Z,9.10
2018-09-05T09:12:13.926Z,9.50
2018-09-05T09:13:13.994Z,9.70
2018-09-05T09:14:14.062Z,9.30
2018-09-05T09:15:14.131Z,9.30
2018-09-05T09:16:14.200Z,8.50
2018-09-05T09:17:14.841Z,9.20
2018-09-05T09:18:14.335Z,9.20
2018-09-05T09:19:14.403Z,8.90
2018-09-05T09:20:14.472Z,8.70
2018-09-05T09:21:14.538Z,8.20
2018-09-05T09:22:14.607Z,8.10
2018-09-05T09:23:14.676Z,8.30
2018-09-05T09:24:14.746Z,7.70
2018-09-05T09:25:14.814Z,8.00
2018-09-05T09:26:14.882Z,7.70
2018-09-05T09:27:14.950Z,8.20
2018-09-05T09:28:15.046Z,7.40
2018-09-05T09:29:15.089Z,7.70
2018-09-05T09:30:15.158Z,7.20
2018-09-05T09:31:15.224Z,7.50
2018-09-05T09:32:15.890Z,7.70
2018-09-05T09:33:16.236Z,7.40
2018-09-05T09:34:15.428Z,7.20
2018-09-05T09:35:15.518Z,7.60
2018-09-05T09:36:15.566Z,7.30
2018-09-05T09:37:15.634Z,7.10
2018-09-05T09:38:15.702Z,7.10
2018-09-05T09:39:15.783Z,7.80
2018-09-05T09:40:15.842Z,8.00
2018-09-05T09:41:15.906Z,7.90
2018-09-05T09:42:15.975Z,7.80
2018-09-05T09:43:16.044Z,8.20
2018-09-05T09:44:16.112Z,7.80
2018-09-05T09:45:16.180Z,8.10
2018-09-05T09:46:16.250Z,8.60
2018-09-05T09:47:16.318Z,8.40
2018-09-05T09:48:16.388Z,8.20
2018-09-05T09:49:16.454Z,8.90
2018-09-05T09:50:16.521Z,7.70
2018-09-05T09:51:16.591Z,8.30
2018-09-05T09:52:16.659Z,8.00
2018-09-05T09:53:16.728Z,7.90
2018-09-05T09:54:16.795Z,8.60
2018-09-05T09:55:16.865Z,8.30
2018-09-05T09:56:16.933Z,7.80
2018-09-05T09:57:17.002Z,8.40
2018-09-05T09:58:17.321Z,8.40
2018-09-05T09:59:17.138Z,7.80
2018-09-05T10:00:17.212Z,8.10
2018-09-05T10:01:17.275Z,7.80
2018-09-05T10:02:17.344Z,8.50
2018-09-05T10:03:17.451Z,7.90
2018-09-05T10:04:17.482Z,7.90
2018-09-05T10:05:17.549Z,7.90
2018-09-05T10:06:17.618Z,8.30
2018-09-05T10:07:17.703Z,7.80
2018-09-05T10:08:17.759Z,8.20
2018-09-05T10:09:17.824Z,7.50
2018-09-05T10:10:18.696Z,8.00
2018-09-05T10:11:18.553Z,7.80
2018-09-05T10:12:18.032Z,8.40
2018-09-05T10:13:18.097Z,8.70
2018-09-05T10:14:18.165Z,8.20
2018-09-05T10:15:18.236Z,8.20
2018-09-05T10:16:18.306Z,7.50
2018-09-05T10:17:18.375Z,8.40
2018-09-05T10:18:18.441Z,7.70
2018-09-05T10:19:18.509Z,7.60
2018-09-05T10:20:18.585Z,7.90
2018-09-05T10:21:18.646Z,8.00
2018-09-05T10:22:18.716Z,7.40
2018-09-05T10:23:18.784Z,7.60
2018-09-05T10:24:18.854Z,7.90
2018-09-05T10:25:18.921Z,8.10
2018-09-05T10:26:18.989Z,8.20
2018-09-05T10:27:19.060Z,7.40
2018-09-05T10:28:19.128Z,7.80
2018-09-05T10:29:19.197Z,7.50
2018-09-05T10:30:19.265Z,8.30
2018-09-05T10:31:19.335Z,7.40
2018-09-05T10:32:19.404Z,7.60
2018-09-05T10:33:19.472Z,7.20
2018-09-05T10:34:19.545Z,7.30
2018-09-05T10:35:19.610Z,7.20
2018-09-05T10:36:19.680Z,7.30
2018-09-05T10:37:19.748Z,7.20
2018-09-05T10:38:19.819Z,7.70
2018-09-05T10:39:19.890Z,8.10
2018-09-05T10:40:19.957Z,7.40
2018-09-05T10:41:20.025Z,8.10
2018-09-05T10:42:20.097Z,7.00
2018-09-05T10:43:20.167Z,7.70
2018-09-05T10:44:20.329Z,7.50
2018-09-05T10:45:20.307Z,7.40
2018-09-05T10:46:20.377Z,7.70
2018-09-05T10:47:20.449Z,8.30
2018-09-05T10:48:20.520Z,7.20
2018-09-05T10:49:20.594Z,7.70
2018-09-05T10:50:20.662Z,8.70
2018-09-05T10:51:20.735Z,7.90
2018-09-05T10:52:20.808Z,8.10
2018-09-05T10:53:20.878Z,7.90
2018-09-05T10:54:20.951Z,7.80
2018-09-05T10:55:21.024Z,7.50
2018-09-05T10:56:21.097Z,7.40
2018-09-05T10:57:21.169Z,7.60
2018-09-05T10:58:21.242Z,7.80
2018-09-05T10:59:21.316Z,8.00
2018-09-05T11:00:21.391Z,7.60
2018-09-05T11:01:21.466Z,7.30
2018-09-05T11:02:21.539Z,7.20
2018-09-05T11:03:21.613Z,7.30
2018-09-05T11:04:21.752Z,8.10
2018-09-05T11:05:22.341Z,7.80
2018-09-05T11:06:21.836Z,7.50
2018-09-05T11:07:21.910Z,7.60
2018-09-05T11:08:21.985Z,7.50
2018-09-05T11:09:22.059Z,7.60
2018-09-05T11:10:22.195Z,7.70
2018-09-05T11:11:22.208Z,7.40
2018-09-05T11:12:22.284Z,7.00
2018-09-05T11:13:22.359Z,7.40
2018-09-05T11:14:22.434Z,7.50
2018-09-05T11:15:22.510Z,7.30
2018-09-05T11:16:22.585Z,7.60
2018-09-05T11:17:22.659Z,7.70
2018-09-05T11:18:22.734Z,7.60
2018-09-05T11:19:22.810Z,7.60
2018-09-05T11:20:22.886Z,7.30
2018-09-05T11:21:22.987Z,7.20
2018-09-05T11:22:23.037Z,7.10
2018-09-05T11:23:23.112Z,7.20
2018-09-05T11:24:23.190Z,7.00
2018-09-05T11:25:23.263Z,7.10
2018-09-05T11:26:23.344Z,7.40
2018-09-05T11:27:23.414Z,7.30
2018-09-05T11:28:23.490Z,6.90
2018-09-05T11:29:23.565Z,7.30
2018-09-05T11:30:23.641Z,7.30
2018-09-05T11:31:23.717Z,7.00
2018-09-05T11:32:23.792Z,7.40
2018-09-05T11:33:23.866Z,7.40
2018-09-05T11:34:23.942Z,7.10
2018-09-05T11:35:24.018Z,7.00
2018-09-05T11:36:24.093Z,7.40
2018-09-05T11:37:24.169Z,7.40
2018-09-05T11:38:24.244Z,6.70
2018-09-05T11:39:24.319Z,7.80
2018-09-05T11:40:24.396Z,7.00
2018-09-05T11:41:24.470Z,7.10
2018-09-05T11:42:24.546Z,7.20
2018-09-05T11:43:24.622Z,7.10
2018-09-05T11:44:24.697Z,7.30
2018-09-05T11:45:24.772Z,7.10
2018-09-05T11:46:24.847Z,7.10
2018-09-05T11:47:24.927Z,6.90
2018-09-05T11:48:24.998Z,7.10
2018-09-05T11:49:25.095Z,6.80
2018-09-05T11:50:25.149Z,7.00
2018-09-05T11:51:25.225Z,7.40
2018-09-05T11:52:25.302Z,6.90
2018-09-05T11:53:25.374Z,7.30
2018-09-05T11:54:25.451Z,7.50
2018-09-05T11:55:25.542Z,7.20
2018-09-05T11:56:25.602Z,6.80
2018-09-05T11:57:25.734Z,7.20
2018-09-05T11:58:25.752Z,6.80
2018-09-05T11:59:25.832Z,7.20
2018-09-05T12:00:25.902Z,6.70
2018-09-05T12:01:25.979Z,7.40
2018-09-05T12:02:26.064Z,7.40
2018-09-05T12:03:26.130Z,7.10
2018-09-05T12:04:26.206Z,6.90
2018-09-05T12:05:26.281Z,7.10
2018-09-05T12:06:26.355Z,7.30
2018-09-05T12:07:26.431Z,6.90
2018-09-05T12:08:26.506Z,7.10
2018-09-05T12:09:26.593Z,6.60
2018-09-05T12:10:26.655Z,6.90
2018-09-05T12:11:26.733Z,7.00
2018-09-05T12:12:26.805Z,6.80
2018-09-05T12:13:26.878Z,6.60
2018-09-05T12:14:26.951Z,7.30
2018-09-05T12:15:27.026Z,7.30
2018-09-05T12:16:27.099Z,6.60
2018-09-05T12:17:27.173Z,7.10
2018-09-05T12:18:27.245Z,7.10
2018-09-05T12:19:27.318Z,7.00
2018-09-05T12:20:27.391Z,7.20
2018-09-05T12:21:27.467Z,6.80
2018-09-05T12:22:27.536Z,7.70
2018-09-05T12:23:27.607Z,7.10
2018-09-05T12:24:27.997Z,6.90
2018-09-05T12:25:27.752Z,7.10
2018-09-05T12:26:27.825Z,6.70
2018-09-05T12:27:27.896Z,7.00
2018-09-05T12:28:27.969Z,6.90
2018-09-05T12:29:28.040Z,7.10
2018-09-05T12:30:28.113Z,6.40
2018-09-05T12:31:28.185Z,6.60
2018-09-05T12:32:28.261Z,6.80
2018-09-05T12:33:28.331Z,7.50
2018-09-05T12:34:28.401Z,7.00
2018-09-05T12:35:28.476Z,6.70
2018-09-05T12:36:28.546Z,7.50
2018-09-05T12:37:28.619Z,6.80
2018-09-05T12:38:28.693Z,6.90
2018-09-05T12:39:28.767Z,7.20
2018-09-05T12:40:28.839Z,7.10
2018-09-05T12:41:29.146Z,7.00
2018-09-05T12:42:28.985Z,7.10
2018-09-05T12:43:29.060Z,7.20
2018-09-05T12:44:29.135Z,7.20
2018-09-05T12:45:29.208Z,6.60
2018-09-05T12:46:29.281Z,6.00
2018-09-05T12:47:29.356Z,6.50
2018-09-05T12:48:29.432Z,6.90
2018-09-05T12:49:29.505Z,7.50
2018-09-05T12:50:29.580Z,7.00
2018-09-05T12:51:29.657Z,6.80
2018-09-05T12:52:29.731Z,7.00
2018-09-05T12:53:29.804Z,6.90
2018-09-05T12:54:29.877Z,6.80
2018-09-05T12:55:29.952Z,7.50
2018-09-05T12:56:30.026Z,6.90
2018-09-05T12:57:30.099Z,7.20
2018-09-05T12:58:30.173Z,7.10
2018-09-05T12:59:30.246Z,6.90
2018-09-05T13:00:30.323Z,7.00
2018-09-05T13:01:30.395Z,6.70
2018-09-05T13:02:30.469Z,7.40
2018-09-05T13:03:30.545Z,7.10
2018-09-05T13:04:30.622Z,6.80
2018-09-05T13:05:30.735Z,6.90
2018-09-05T13:06:30.766Z,7.10
2018-09-05T13:07:30.844Z,7.40
2018-09-05T13:08:30.917Z,7.30
2018-09-05T13:09:30.992Z,6.80
2018-09-05T13:10:31.067Z,7.00
2018-09-05T13:11:31.472Z,6.50
2018-09-05T13:12:31.218Z,6.70
2018-09-05T13:13:31.295Z,7.20
2018-09-05T13:14:31.371Z,6.90
2018-09-05T13:15:31.853Z,6.80
2018-09-05T13:16:31.611Z,7.30
2018-09-05T13:17:31.600Z,6.40
2018-09-05T13:18:32.077Z,7.20